Time;durP1;ratioP1;P1;durP2;ratioP2;P2;SDS_P1;SDS_P2;PMS_P1;PMS_P2;Temp;Humidity;BMP_temperature;BMP_pressure;BME280_temperature;BME280_humidity;BME280_pressure;Samples;Min_cycle;Max_cycle;Signal;HPM_P1;HPM_P2
2021/04/27 00:00:09;;;;;;;9.93;5.13;;;;;;;;;;5108745;28;20040;-65
2021/04/27 00:03:09;;;;;;;8.93;4.68;;;;;;;;;;5030036;28;20444;-66
2021/04/27 00:07:11;;;;;;;7.82;4.68;;;;;;;;;;5110095;27;20391;-65
2021/04/27 00:09:38;;;;;;;10.00;4.88;;;;;;;;;;5110550;28;20028;-65
2021/04/27 00:12:05;;;;;;;8.63;4.75;;;;;;;;;;5110448;28;20040;-65
2021/04/27 00:14:31;;;;;;;8.95;5.28;;;;;;;;;;5110172;28;20089;-65
2021/04/27 00:16:57;;;;;;;7.65;4.82;;;;;;;;;;5110523;28;20047;-65
2021/04/27 00:19:25;;;;;;;8.88;4.55;;;;;;;;;;5108983;28;20383;-65
2021/04/27 00:21:51;;;;;;;10.80;5.07;;;;;;;;;;5109908;28;20032;-65
2021/04/27 00:24:17;;;;;;;8.95;5.18;;;;;;;;;;5110175;28;20361;-65
2021/04/27 00:28:06;;;;;;;9.90;4.78;;;;;;;;;;5110137;27;20767;-65
2021/04/27 00:30:32;;;;;;;9.70;5.05;;;;;;;;;;5110466;28;20036;-65
2021/04/27 00:32:58;;;;;;;11.15;5.40;;;;;;;;;;5109036;28;20061;-65
2021/04/27 00:35:25;;;;;;;8.30;5.28;;;;;;;;;;5108889;28;20472;-65
2021/04/27 00:37:51;;;;;;;11.32;5.63;;;;;;;;;;5110495;28;20062;-65
2021/04/27 00:40:19;;;;;;;9.05;4.60;;;;;;;;;;5108984;28;20487;-65
2021/04/27 00:42:46;;;;;;;9.98;5.70;;;;;;;;;;5109789;28;20482;-65
2021/04/27 00:46:49;;;;;;;10.07;4.88;;;;;;;;;;5069856;28;20957;-66
2021/04/27 00:49:15;;;;;;;8.00;4.65;;;;;;;;;;5069491;28;20036;-66
2021/04/27 00:51:41;;;;;;;10.15;5.97;;;;;;;;;;5069950;28;20074;-66
2021/04/27 00:54:08;;;;;;;9.93;5.32;;;;;;;;;;5070001;28;20040;-66
2021/04/27 00:57:30;;;;;;;11.60;6.95;;;;;;;;;;5110453;27;20381;-65
2021/04/27 01:00:18;;;;;;;11.75;6.32;;;;;;;;;;5110576;27;20941;-65
2021/04/27 01:02:44;;;;;;;11.35;6.10;;;;;;;;;;5108803;28;20519;-65
2021/04/27 01:05:12;;;;;;;10.25;6.28;;;;;;;;;;5110443;28;20073;-67
2021/04/27 01:07:39;;;;;;;13.35;7.50;;;;;;;;;;5109214;28;20148;-67
2021/04/27 01:10:07;;;;;;;11.45;6.35;;;;;;;;;;5109877;28;20024;-66
2021/04/27 01:12:35;;;;;;;10.20;5.95;;;;;;;;;;5109205;28;20023;-67
2021/04/27 01:15:07;;;;;;;10.60;6.65;;;;;;;;;;5109182;28;20051;-67
2021/04/27 01:18:46;;;;;;;11.30;7.30;;;;;;;;;;5110538;27;20389;-65
2021/04/27 01:21:13;;;;;;;11.55;6.30;;;;;;;;;;5110769;28;20028;-65
2021/04/27 01:23:58;;;;;;;12.35;6.70;;;;;;;;;;5109990;28;20016;-65
2021/04/27 01:26:28;;;;;;;9.57;5.97;;;;;;;;;;5109202;28;20430;-65
2021/04/27 01:28:54;;;;;;;12.10;7.07;;;;;;;;;;5110353;28;20024;-66
2021/04/27 01:31:21;;;;;;;11.48;7.15;;;;;;;;;;5109917;28;20028;-65
2021/04/27 01:34:41;;;;;;;10.88;6.20;;;;;;;;;;5070230;28;20383;-66
2021/04/27 01:37:09;;;;;;;12.65;6.95;;;;;;;;;;5069635;28;20033;-66
2021/04/27 01:39:36;;;;;;;11.10;6.30;;;;;;;;;;5069864;28;20403;-65
2021/04/27 01:42:04;;;;;;;14.88;6.32;;;;;;;;;;5069952;28;20107;-66
2021/04/27 01:44:31;;;;;;;11.55;5.85;;;;;;;;;;5068202;28;20112;-66
2021/04/27 01:46:58;;;;;;;14.07;6.38;;;;;;;;;;5069814;28;20029;-66
2021/04/27 01:50:24;;;;;;;10.73;5.78;;;;;;;;;;5110449;27;20745;-65
2021/04/27 01:54:40;;;;;;;11.52;6.50;;;;;;;;;;5110719;27;20384;-66
2021/04/27 01:57:06;;;;;;;9.65;5.65;;;;;;;;;;5110623;28;20032;-66
2021/04/27 01:59:33;;;;;;;11.10;6.15;;;;;;;;;;5110026;28;20024;-65
2021/04/27 02:03:39;;;;;;;9.50;5.27;;;;;;;;;;5118401;27;1041870;-65
2021/04/27 02:06:05;;;;;;;9.90;5.80;;;;;;;;;;5129287;28;20114;-67
2021/04/27 02:08:32;;;;;;;10.95;5.90;;;;;;;;;;5129718;28;20023;-66
2021/04/27 02:12:47;;;;;;;14.98;6.68;;;;;;;;;;5110172;27;20389;-66
2021/04/27 02:16:00;;;;;;;11.50;6.60;;;;;;;;;;5110638;27;20385;-66
2021/04/27 02:18:33;;;;;;;9.50;6.35;;;;;;;;;;5109193;28;20377;-66
2021/04/27 02:21:00;;;;;;;14.57;6.57;;;;;;;;;;5109974;28;20521;-66
2021/04/27 02:23:27;;;;;;;8.85;5.38;;;;;;;;;;5109163;28;20032;-66
2021/04/27 02:26:22;;;;;;;10.27;6.35;;;;;;;;;;5110278;27;20434;-65
2021/04/27 02:32:15;;;;;;;12.82;7.40;;;;;;;;;;5110549;27;20385;-65
2021/04/27 02:34:43;;;;;;;15.27;7.32;;;;;;;;;;5110292;28;20487;-65
2021/04/27 02:37:09;;;;;;;11.57;7.43;;;;;;;;;;5109255;28;20020;-65
2021/04/27 02:41:33;;;;;;;10.50;6.03;;;;;;;;;;5069489;28;20387;-65
2021/04/27 02:44:00;;;;;;;11.68;6.70;;;;;;;;;;5069902;28;20029;-65
2021/04/27 02:46:26;;;;;;;10.38;5.40;;;;;;;;;;5069845;28;20025;-65
2021/04/27 02:48:52;;;;;;;12.98;6.53;;;;;;;;;;5069678;28;20025;-65
2021/04/27 02:52:28;;;;;;;10.88;5.75;;;;;;;;;;5110540;27;20381;-65
2021/04/27 02:55:57;;;;;;;10.07;5.75;;;;;;;;;;5110872;27;20454;-65
2021/04/27 02:58:23;;;;;;;10.70;5.97;;;;;;;;;;5110523;28;20055;-65
2021/04/27 03:00:50;;;;;;;11.32;6.38;;;;;;;;;;5110364;28;20024;-65
2021/04/27 03:04:51;;;;;;;12.57;7.22;;;;;;;;;;5049957;28;20442;-65
2021/04/27 03:07:17;;;;;;;11.77;6.68;;;;;;;;;;5048570;28;20478;-65
2021/04/27 03:09:44;;;;;;;12.18;7.47;;;;;;;;;;5049404;28;20057;-65
2021/04/27 03:15:35;;;;;;;9.93;6.00;;;;;;;;;;5110323;27;20373;-65
2021/04/27 03:18:41;;;;;;;11.57;6.55;;;;;;;;;;5110556;27;20441;-65
2021/04/27 03:22:45;;;;;;;11.38;6.43;;;;;;;;;;5110100;27;20385;-65
2021/04/27 03:25:12;;;;;;;14.35;7.05;;;;;;;;;;5110457;28;20020;-65
2021/04/27 03:27:39;;;;;;;12.15;6.70;;;;;;;;;;5110425;28;20100;-65
2021/04/27 03:30:06;;;;;;;10.45;6.55;;;;;;;;;;5109976;28;20028;-67
2021/04/27 03:32:32;;;;;;;11.10;6.38;;;;;;;;;;5109117;28;20036;-66
2021/04/27 03:37:01;;;;;;;10.05;6.10;;;;;;;;;;5029971;27;20386;-66
2021/04/27 03:40:22;;;;;;;11.05;7.13;;;;;;;;;;5110484;27;20381;-65
2021/04/27 03:42:49;;;;;;;10.90;7.40;;;;;;;;;;5110419;28;20028;-65
2021/04/27 03:45:17;;;;;;;15.23;9.50;;;;;;;;;;5110292;28;20375;-65
2021/04/27 03:48:21;;;;;;;14.93;8.15;;;;;;;;;;5110489;27;20787;-65
2021/04/27 03:50:48;;;;;;;12.05;7.68;;;;;;;;;;5108735;28;20035;-65
2021/04/27 03:56:09;;;;;;;15.25;8.73;;;;;;;;;;5110660;27;20381;-65
2021/04/27 03:58:35;;;;;;;12.10;7.20;;;;;;;;;;5110082;28;20024;-65
2021/04/27 04:02:42;;;;;;;12.73;7.40;;;;;;;;;;5110441;27;20436;-65
2021/04/27 04:05:48;;;;;;;17.17;8.05;;;;;;;;;;5110133;27;20892;-66
2021/04/27 04:08:15;;;;;;;13.32;8.02;;;;;;;;;;5110471;28;20111;-67
2021/04/27 04:10:41;;;;;;;11.02;6.88;;;;;;;;;;5110338;28;20046;-65
2021/04/27 04:13:18;;;;;;;9.38;6.20;;;;;;;;;;5130957;27;20166;-65
2021/04/27 04:15:44;;;;;;;13.63;8.13;;;;;;;;;;5092392;28;20318;-65
2021/04/27 04:18:10;;;;;;;12.50;8.05;;;;;;;;;;5110534;28;20096;-64
2021/04/27 04:20:36;;;;;;;13.13;8.20;;;;;;;;;;5109969;28;20368;-65
2021/04/27 04:26:26;;;;;;;12.15;7.43;;;;;;;;;;5110124;27;20168;-65
2021/04/27 04:28:52;;;;;;;12.35;6.70;;;;;;;;;;5110441;28;20038;-65
2021/04/27 04:33:52;;;;;;;9.95;7.05;;;;;;;;;;5029743;28;20468;-65
2021/04/27 04:36:42;;;;;;;9.48;6.43;;;;;;;;;;5110701;27;20970;-65
2021/04/27 04:39:09;;;;;;;16.92;7.18;;;;;;;;;;5110473;28;20089;-65
2021/04/27 04:41:35;;;;;;;12.15;7.63;;;;;;;;;;5110023;28;20043;-65
2021/04/27 04:44:01;;;;;;;12.00;7.10;;;;;;;;;;5110394;28;20468;-65
2021/04/27 04:46:27;;;;;;;12.48;7.50;;;;;;;;;;5108914;28;20024;-65
2021/04/27 04:48:54;;;;;;;12.23;8.60;;;;;;;;;;5109866;28;20027;-65
2021/04/27 04:51:20;;;;;;;15.15;9.63;;;;;;;;;;5110187;28;20415;-65
2021/04/27 04:53:46;;;;;;;20.88;11.45;;;;;;;;;;5108883;28;20380;-65
2021/04/27 04:56:12;;;;;;;18.70;10.32;;;;;;;;;;5109805;28;20039;-65
2021/04/27 04:58:38;;;;;;;19.55;11.80;;;;;;;;;;5110120;28;20571;-66
2021/04/27 05:06:43;;;;;;;17.63;8.60;;;;;;;;;;5024191;28;20464;-63
2021/04/27 05:09:38;;;;;;;13.95;8.70;;;;;;;;;;5078856;27;20332;-64
2021/04/27 05:12:05;;;;;;;12.63;8.38;;;;;;;;;;5062328;28;20049;-63
2021/04/27 05:14:33;;;;;;;12.48;7.72;;;;;;;;;;5062264;28;20028;-62
2021/04/27 05:16:59;;;;;;;14.82;8.43;;;;;;;;;;5060586;28;20163;-62
2021/04/27 05:20:20;;;;;;;13.65;9.20;;;;;;;;;;5045230;28;20438;-62
2021/04/27 05:22:46;;;;;;;11.85;7.82;;;;;;;;;;5043747;28;20201;-62
2021/04/27 05:25:30;;;;;;;14.55;8.30;;;;;;;;;;5041444;28;20553;-63
2021/04/27 05:27:56;;;;;;;16.33;9.07;;;;;;;;;;5042262;28;20025;-64
2021/04/27 05:30:22;;;;;;;14.07;7.45;;;;;;;;;;5046690;28;20032;-64
2021/04/27 05:32:49;;;;;;;10.82;6.63;;;;;;;;;;5044427;28;20021;-64
2021/04/27 05:37:40;;;;;;;11.18;6.28;;;;;;;;;;5009738;28;20422;-64
2021/04/27 05:42:28;;;;;;;10.73;7.25;;;;;;;;;;5103196;27;20389;-64
2021/04/27 05:44:54;;;;;;;10.15;5.72;;;;;;;;;;5107485;28;20027;-63
2021/04/27 05:47:21;;;;;;;10.20;5.85;;;;;;;;;;5090809;27;20110;-64
2021/04/27 05:51:48;;;;;;;9.75;5.13;;;;;;;;;;5043752;28;20435;-62
2021/04/27 05:54:14;;;;;;;8.88;5.43;;;;;;;;;;5045228;28;20565;-66
2021/04/27 05:58:31;;;;;;;8.88;5.00;;;;;;;;;;5092791;27;20462;-64
2021/04/27 06:02:10;;;;;;;7.22;4.00;;;;;;;;;;5047149;28;20442;-65
2021/04/27 06:08:39;;;;;;;7.80;4.80;;;;;;;;;;5091766;27;20438;-66
2021/04/27 06:11:06;;;;;;;9.35;4.35;;;;;;;;;;5087397;28;20089;-66
2021/04/27 06:13:33;;;;;;;7.15;4.57;;;;;;;;;;5086919;28;20031;-65
2021/04/27 06:15:59;;;;;;;9.30;3.78;;;;;;;;;;5088088;28;20096;-64
2021/04/27 06:19:34;;;;;;;8.82;4.65;;;;;;;;;;5089687;27;20449;-63
2021/04/27 06:22:00;;;;;;;12.55;5.38;;;;;;;;;;5088142;28;20104;-62
2021/04/27 06:24:45;;;;;;;7.13;3.58;;;;;;;;;;5060708;28;20938;-64
2021/04/27 06:29:52;;;;;;;6.57;3.38;;;;;;;;;;5098548;27;20333;-62
2021/04/27 06:32:53;;;;;;;8.27;4.47;;;;;;;;;;5091528;27;20485;-62
2021/04/27 06:35:26;;;;;;;15.50;6.75;;;;;;;;;;5093589;28;20028;-62
2021/04/27 06:37:52;;;;;;;7.13;4.00;;;;;;;;;;5087793;28;20036;-62
2021/04/27 06:42:10;;;;;;;9.60;3.28;;;;;;;;;;5091877;27;20465;-63
2021/04/27 06:44:36;;;;;;;8.70;4.55;;;;;;;;;;5087110;28;20039;-62
2021/04/27 06:47:27;;;;;;;9.13;3.42;;;;;;;;;;5078225;27;20856;-64
2021/04/27 06:49:54;;;;;;;8.15;4.80;;;;;;;;;;5078505;28;20031;-64
2021/04/27 06:57:15;;;;;;;6.18;3.40;;;;;;;;;;5081422;27;20971;-63
2021/04/27 07:00:41;;;;;;;10.73;3.72;;;;;;;;;;5084616;27;20395;-67
2021/04/27 07:03:07;;;;;;;4.70;2.90;;;;;;;;;;5038271;28;20028;-64
2021/04/27 07:05:35;;;;;;;6.82;3.50;;;;;;;;;;5044238;28;20154;-64
2021/04/27 07:08:01;;;;;;;7.40;3.65;;;;;;;;;;5044353;28;20063;-66
2021/04/27 07:10:53;;;;;;;5.55;3.20;;;;;;;;;;5029075;28;20983;-67
2021/04/27 07:13:23;;;;;;;11.95;3.97;;;;;;;;;;5024848;28;20024;-67
2021/04/27 07:15:49;;;;;;;8.63;3.30;;;;;;;;;;5027944;28;20017;-67
2021/04/27 07:20:30;;;;;;;7.95;3.17;;;;;;;;;;5025982;28;20423;-66
2021/04/27 07:22:56;;;;;;;10.82;3.72;;;;;;;;;;5026988;28;20074;-65
2021/04/27 07:25:23;;;;;;;7.05;3.10;;;;;;;;;;5024620;28;20565;-66
2021/04/27 07:31:39;;;;;;;7.22;4.15;;;;;;;;;;5064466;28;20898;-66
2021/04/27 07:34:28;;;;;;;8.27;5.18;;;;;;;;;;5106691;27;20442;-67
2021/04/27 07:37:04;;;;;;;10.57;6.15;;;;;;;;;;5106565;27;20385;-66
2021/04/27 07:39:31;;;;;;;12.63;4.70;;;;;;;;;;5100953;28;20047;-67
2021/04/27 07:41:57;;;;;;;8.20;3.92;;;;;;;;;;5110095;28;20077;-65
2021/04/27 07:44:40;;;;;;;6.90;3.22;;;;;;;;;;5108037;27;20423;-66
2021/04/27 07:47:06;;;;;;;6.43;3.22;;;;;;;;;;5108356;28;20483;-65
2021/04/27 07:49:32;;;;;;;7.40;3.50;;;;;;;;;;5108971;28;20039;-68
2021/04/27 07:51:58;;;;;;;6.65;3.10;;;;;;;;;;5109220;28;20031;-68
2021/04/27 07:54:24;;;;;;;9.43;4.00;;;;;;;;;;5109006;28;20103;-67
2021/04/27 07:56:51;;;;;;;6.38;3.20;;;;;;;;;;5097968;28;20021;-69
2021/04/27 07:59:17;;;;;;;5.82;2.97;;;;;;;;;;5095810;28;20020;-67
2021/04/27 08:01:43;;;;;;;6.45;3.53;;;;;;;;;;5088423;28;20056;-67
2021/04/27 08:04:10;;;;;;;8.57;3.20;;;;;;;;;;5088928;28;20032;-68
2021/04/27 08:06:54;;;;;;;7.50;3.13;;;;;;;;;;5088036;28;20117;-65
2021/04/27 08:09:21;;;;;;;7.53;3.70;;;;;;;;;;5095053;28;20020;-68
2021/04/27 08:11:47;;;;;;;8.20;4.05;;;;;;;;;;5087969;28;20080;-65
2021/04/27 08:14:14;;;;;;;6.88;3.40;;;;;;;;;;5088460;28;20017;-66
2021/04/27 08:16:40;;;;;;;5.97;3.63;;;;;;;;;;5088687;28;20027;-68
2021/04/27 08:19:07;;;;;;;7.68;4.18;;;;;;;;;;5088001;28;20472;-68
2021/04/27 08:23:25;;;;;;;7.43;3.38;;;;;;;;;;5109809;27;20772;-66
2021/04/27 08:26:54;;;;;;;6.32;3.00;;;;;;;;;;5067031;28;20396;-67
2021/04/27 08:29:20;;;;;;;7.32;3.80;;;;;;;;;;5061508;28;20575;-67
2021/04/27 08:31:46;;;;;;;8.13;3.38;;;;;;;;;;5055737;28;20036;-66
2021/04/27 08:34:12;;;;;;;6.28;2.80;;;;;;;;;;5051255;28;20020;-66
2021/04/27 08:38:33;;;;;;;13.30;3.92;;;;;;;;;;5108842;27;20406;-65
2021/04/27 08:41:00;;;;;;;6.55;2.80;;;;;;;;;;5105831;28;20052;-65
2021/04/27 08:43:27;;;;;;;6.03;3.45;;;;;;;;;;5106453;28;20035;-65
2021/04/27 08:45:53;;;;;;;8.25;3.13;;;;;;;;;;5108147;28;20074;-66
2021/04/27 08:48:21;;;;;;;4.68;2.20;;;;;;;;;;5109931;28;20054;-67
2021/04/27 08:50:48;;;;;;;5.18;2.60;;;;;;;;;;5115286;28;20027;-68
2021/04/27 08:54:20;;;;;;;5.05;2.92;;;;;;;;;;5068640;28;20798;-66
2021/04/27 08:58:10;;;;;;;8.65;3.00;;;;;;;;;;5127759;27;20471;-66
2021/04/27 09:00:37;;;;;;;6.10;2.47;;;;;;;;;;5091923;28;20028;-67
2021/04/27 09:03:05;;;;;;;31.30;5.93;;;;;;;;;;5109108;28;20023;-66
2021/04/27 09:05:33;;;;;;;8.45;3.45;;;;;;;;;;5109542;28;20020;-67
2021/04/27 09:09:12;;;;;;;6.93;3.20;;;;;;;;;;5108138;27;20109;-66
2021/04/27 09:12:24;;;;;;;5.78;2.65;;;;;;;;;;5108231;27;20389;-66
2021/04/27 09:15:27;;;;;;;7.63;2.63;;;;;;;;;;5109210;27;20385;-66
2021/04/27 09:17:53;;;;;;;3.92;2.58;;;;;;;;;;5120408;28;20024;-67
2021/04/27 09:20:20;;;;;;;8.07;2.25;;;;;;;;;;5108008;28;20502;-67
2021/04/27 09:22:46;;;;;;;7.70;3.78;;;;;;;;;;5107387;28;20027;-69
2021/04/27 09:25:12;;;;;;;6.38;3.05;;;;;;;;;;5106346;28;20027;-66
2021/04/27 09:27:44;;;;;;;5.70;3.15;;;;;;;;;;5105848;28;20510;-67
2021/04/27 09:30:12;;;;;;;5.88;3.15;;;;;;;;;;5105836;28;20034;-67
2021/04/27 09:32:39;;;;;;;7.05;2.60;;;;;;;;;;5109403;28;20472;-67
2021/04/27 09:36:38;;;;;;;5.95;2.50;;;;;;;;;;5107990;27;20433;-67
2021/04/27 09:39:05;;;;;;;4.72;2.17;;;;;;;;;;5108713;28;20535;-67
2021/04/27 09:41:31;;;;;;;3.20;2.08;;;;;;;;;;5101022;28;20476;-66
2021/04/27 09:43:57;;;;;;;7.47;2.50;;;;;;;;;;5105471;28;20089;-67
2021/04/27 09:46:23;;;;;;;4.00;1.98;;;;;;;;;;5105290;28;20103;-67
2021/04/27 09:51:41;;;;;;;5.32;2.20;;;;;;;;;;5107740;27;20385;-66
2021/04/27 09:54:08;;;;;;;9.55;2.95;;;;;;;;;;5109495;28;20468;-68
2021/04/27 09:57:28;;;;;;;5.90;2.78;;;;;;;;;;5067335;28;20408;-66
2021/04/27 09:59:55;;;;;;;6.18;2.40;;;;;;;;;;5069266;28;20044;-67
2021/04/27 10:02:22;;;;;;;3.08;1.77;;;;;;;;;;5069057;28;20023;-68
2021/04/27 10:04:49;;;;;;;4.18;1.92;;;;;;;;;;5068097;28;20013;-66
2021/04/27 10:07:17;;;;;;;5.70;2.25;;;;;;;;;;5069037;28;20067;-67
2021/04/27 10:09:44;;;;;;;6.50;2.40;;;;;;;;;;5069036;28;20016;-67
2021/04/27 10:12:10;;;;;;;4.60;2.40;;;;;;;;;;5067929;28;20013;-68
2021/04/27 10:14:36;;;;;;;5.75;2.42;;;;;;;;;;5065980;28;20036;-68
2021/04/27 10:17:03;;;;;;;7.22;2.67;;;;;;;;;;5065802;28;20053;-67
2021/04/27 10:19:29;;;;;;;6.53;2.40;;;;;;;;;;5066602;28;20021;-67
2021/04/27 10:21:55;;;;;;;6.18;2.55;;;;;;;;;;5066017;28;20172;-67
2021/04/27 10:24:26;;;;;;;3.88;2.30;;;;;;;;;;5066442;28;20025;-67
2021/04/27 10:27:30;;;;;;;4.65;2.20;;;;;;;;;;5046412;28;20389;-67
2021/04/27 10:30:17;;;;;;;4.93;2.75;;;;;;;;;;5045746;28;20547;-66
2021/04/27 10:32:43;;;;;;;5.80;2.75;;;;;;;;;;5032462;28;20033;-68
2021/04/27 10:35:11;;;;;;;5.38;2.33;;;;;;;;;;5043817;28;20041;-67
2021/04/27 10:38:59;;;;;;;8.02;2.90;;;;;;;;;;5107209;27;20373;-69
2021/04/27 10:41:42;;;;;;;7.18;3.38;;;;;;;;;;5107713;28;20023;-65
2021/04/27 10:45:39;;;;;;;10.43;3.60;;;;;;;;;;5110237;27;20384;-67
2021/04/27 10:48:05;;;;;;;7.97;3.63;;;;;;;;;;5108098;28;20051;-67
2021/04/27 10:52:41;;;;;;;9.25;2.75;;;;;;;;;;5109905;27;20450;-69
2021/04/27 10:56:47;;;;;;;7.78;3.25;;;;;;;;;;5067301;28;20449;-67
2021/04/27 10:59:14;;;;;;;8.85;3.17;;;;;;;;;;5068701;28;20032;-65
2021/04/27 11:01:41;;;;;;;5.18;2.50;;;;;;;;;;5067793;28;20389;-66
2021/04/27 11:07:30;;;;;;;7.22;3.28;;;;;;;;;;5069283;28;20933;-65
2021/04/27 11:10:05;;;;;;;6.18;3.25;;;;;;;;;;5069323;28;20039;-66
2021/04/27 11:12:53;;;;;;;7.47;3.15;;;;;;;;;;5089735;28;20414;-67
2021/04/27 11:15:20;;;;;;;6.15;3.03;;;;;;;;;;5088381;28;20055;-65
2021/04/27 11:18:07;;;;;;;7.55;3.20;;;;;;;;;;5089283;28;20054;-64
2021/04/27 11:20:45;;;;;;;8.95;3.78;;;;;;;;;;5083544;28;20029;-65
2021/04/27 11:23:30;;;;;;;8.43;3.58;;;;;;;;;;5088555;28;20028;-63
2021/04/27 11:25:58;;;;;;;9.40;3.45;;;;;;;;;;5088344;28;20381;-67
2021/04/27 11:28:45;;;;;;;12.73;3.70;;;;;;;;;;5087436;28;20032;-67
2021/04/27 11:31:16;;;;;;;6.50;3.03;;;;;;;;;;5088768;28;20048;-67
2021/04/27 11:33:43;;;;;;;7.75;3.15;;;;;;;;;;5088290;28;20033;-67
2021/04/27 11:36:10;;;;;;;6.93;2.90;;;;;;;;;;5087997;28;20414;-67
2021/04/27 11:38:39;;;;;;;6.32;2.70;;;;;;;;;;5088146;28;20021;-65
2021/04/27 11:41:06;;;;;;;6.20;2.40;;;;;;;;;;5041689;28;20032;-66
2021/04/27 11:44:39;;;;;;;8.70;4.05;;;;;;;;;;5039578;28;20588;-64
2021/04/27 11:47:28;;;;;;;6.88;3.30;;;;;;;;;;5008223;28;20048;-65
2021/04/27 11:49:58;;;;;;;8.35;3.85;;;;;;;;;;5009904;28;20108;-65
2021/04/27 11:52:40;;;;;;;9.68;3.75;;;;;;;;;;5001192;28;20026;-67
2021/04/27 11:55:30;;;;;;;5.80;2.70;;;;;;;;;;4996371;28;20144;-67
2021/04/27 11:58:03;;;;;;;9.65;3.10;;;;;;;;;;5013350;28;20017;-66
2021/04/27 12:00:50;;;;;;;8.55;3.42;;;;;;;;;;5048266;28;20025;-65
2021/04/27 12:03:26;;;;;;;7.63;3.03;;;;;;;;;;5044190;28;20036;-64
2021/04/27 12:06:04;;;;;;;6.30;3.00;;;;;;;;;;5047394;28;20389;-67
2021/04/27 12:08:32;;;;;;;4.95;2.58;;;;;;;;;;5046495;28;20026;-65
2021/04/27 12:11:13;;;;;;;7.43;3.17;;;;;;;;;;5045562;28;20080;-65
2021/04/27 12:14:04;;;;;;;10.85;4.50;;;;;;;;;;5048889;28;20518;-64
2021/04/27 12:16:34;;;;;;;8.57;3.67;;;;;;;;;;5049090;28;20033;-64
2021/04/27 12:19:15;;;;;;;5.38;2.85;;;;;;;;;;5047381;28;20080;-64
2021/04/27 12:22:06;;;;;;;7.45;3.40;;;;;;;;;;5048725;28;20032;-66
2021/04/27 12:24:36;;;;;;;6.50;2.50;;;;;;;;;;5048438;28;20854;-65
2021/04/27 12:27:03;;;;;;;5.85;2.65;;;;;;;;;;5047591;28;20026;-64
2021/04/27 12:29:37;;;;;;;5.60;2.60;;;;;;;;;;5048618;28;20025;-64
2021/04/27 12:32:11;;;;;;;4.63;2.10;;;;;;;;;;5046757;28;20363;-65
2021/04/27 12:35:09;;;;;;;10.43;2.75;;;;;;;;;;5048984;28;20030;-64
2021/04/27 12:37:45;;;;;;;5.53;2.30;;;;;;;;;;5042692;28;20116;-64
2021/04/27 12:40:30;;;;;;;4.38;2.40;;;;;;;;;;5048247;28;20037;-65
2021/04/27 12:43:02;;;;;;;6.28;3.35;;;;;;;;;;5048398;28;20491;-64
2021/04/27 12:45:29;;;;;;;8.43;2.90;;;;;;;;;;5048187;28;20021;-65
2021/04/27 12:48:09;;;;;;;6.25;2.42;;;;;;;;;;5048123;28;20098;-64
2021/04/27 12:50:43;;;;;;;4.55;2.42;;;;;;;;;;5047942;28;20029;-65
2021/04/27 12:53:12;;;;;;;3.67;1.77;;;;;;;;;;5047968;28;20394;-66
2021/04/27 12:55:41;;;;;;;6.25;2.55;;;;;;;;;;5035476;28;20095;-65
2021/04/27 12:58:15;;;;;;;3.78;2.15;;;;;;;;;;5034997;28;20026;-65
2021/04/27 13:01:04;;;;;;;12.20;4.03;;;;;;;;;;5032993;28;20022;-65
2021/04/27 13:03:34;;;;;;;5.60;2.55;;;;;;;;;;5034347;28;20341;-64
2021/04/27 13:06:26;;;;;;;5.25;2.10;;;;;;;;;;5034047;28;20021;-63
2021/04/27 13:09:18;;;;;;;4.43;1.98;;;;;;;;;;5034268;28;20358;-64
2021/04/27 13:12:04;;;;;;;5.05;2.22;;;;;;;;;;5034292;28;20072;-64
2021/04/27 13:14:37;;;;;;;6.88;2.50;;;;;;;;;;5033650;28;20029;-64
2021/04/27 13:17:08;;;;;;;4.40;2.00;;;;;;;;;;5034566;28;20032;-65
2021/04/27 13:19:47;;;;;;;6.28;2.20;;;;;;;;;;5034557;28;20041;-64
2021/04/27 13:22:19;;;;;;;6.80;2.35;;;;;;;;;;5032442;28;20037;-64
2021/04/27 13:24:48;;;;;;;8.13;2.58;;;;;;;;;;5033245;28;20052;-64
2021/04/27 13:27:23;;;;;;;6.63;2.60;;;;;;;;;;5034402;28;20033;-65
2021/04/27 13:29:49;;;;;;;5.57;2.38;;;;;;;;;;5033909;28;20101;-66
2021/04/27 13:32:17;;;;;;;6.10;2.42;;;;;;;;;;5033873;28;20026;-65
2021/04/27 13:34:43;;;;;;;6.07;2.40;;;;;;;;;;5034122;28;20056;-66
2021/04/27 13:37:10;;;;;;;6.30;2.63;;;;;;;;;;5033053;28;20064;-64
2021/04/27 13:39:36;;;;;;;5.53;2.50;;;;;;;;;;5034059;28;20025;-65
2021/04/27 13:42:03;;;;;;;5.18;2.28;;;;;;;;;;5033516;28;20045;-65
2021/04/27 13:44:29;;;;;;;5.20;2.15;;;;;;;;;;5033562;28;20096;-65
2021/04/27 13:46:56;;;;;;;4.57;2.47;;;;;;;;;;5032628;28;20017;-65
2021/04/27 13:49:22;;;;;;;5.90;2.78;;;;;;;;;;5033461;28;20029;-65
2021/04/27 13:51:48;;;;;;;6.65;2.88;;;;;;;;;;5034247;28;20049;-65
2021/04/27 13:54:15;;;;;;;5.53;2.85;;;;;;;;;;5032329;28;20482;-65
2021/04/27 13:56:41;;;;;;;5.70;2.38;;;;;;;;;;5033584;28;20563;-65
2021/04/27 13:59:07;;;;;;;5.90;2.78;;;;;;;;;;5032615;28;20018;-62
2021/04/27 14:01:34;;;;;;;4.72;2.25;;;;;;;;;;5033961;28;20033;-65
2021/04/27 14:04:01;;;;;;;5.78;2.65;;;;;;;;;;5033385;28;20041;-64
2021/04/27 14:06:27;;;;;;;6.63;2.55;;;;;;;;;;5031384;28;20022;-66
2021/04/27 14:08:54;;;;;;;4.75;2.42;;;;;;;;;;5033793;28;20390;-66
2021/04/27 14:11:20;;;;;;;5.38;2.22;;;;;;;;;;5031047;28;20024;-66
2021/04/27 14:13:46;;;;;;;4.22;2.15;;;;;;;;;;5034023;28;20032;-67
2021/04/27 14:16:13;;;;;;;4.63;2.13;;;;;;;;;;5032608;28;20053;-66
2021/04/27 14:18:39;;;;;;;4.82;2.58;;;;;;;;;;5033429;28;20026;-66
2021/04/27 14:21:06;;;;;;;9.45;3.88;;;;;;;;;;5033706;28;20022;-66
2021/04/27 14:23:32;;;;;;;12.27;4.75;;;;;;;;;;5033674;28;20040;-66
2021/04/27 14:25:59;;;;;;;10.40;4.57;;;;;;;;;;5033156;28;20100;-66
2021/04/27 14:28:25;;;;;;;10.25;4.18;;;;;;;;;;5033625;28;20029;-66
2021/04/27 14:30:51;;;;;;;7.60;3.58;;;;;;;;;;5032095;28;20485;-66
2021/04/27 14:33:18;;;;;;;9.25;4.25;;;;;;;;;;5033579;28;20029;-66
2021/04/27 14:35:44;;;;;;;12.05;5.25;;;;;;;;;;5031730;28;20533;-65
2021/04/27 14:38:11;;;;;;;9.40;4.88;;;;;;;;;;5031750;28;20033;-65
2021/04/27 14:40:38;;;;;;;8.38;3.97;;;;;;;;;;5033240;28;20410;-66
2021/04/27 14:43:05;;;;;;;12.13;5.78;;;;;;;;;;5031688;28;20054;-64
2021/04/27 14:45:32;;;;;;;8.98;4.40;;;;;;;;;;5032811;28;20068;-66
2021/04/27 14:47:59;;;;;;;7.03;3.25;;;;;;;;;;5031995;28;20025;-64
2021/04/27 14:50:26;;;;;;;8.60;3.53;;;;;;;;;;5033255;28;20025;-65
2021/04/27 14:52:52;;;;;;;9.70;4.05;;;;;;;;;;5031365;28;20025;-66
2021/04/27 14:55:20;;;;;;;13.60;4.20;;;;;;;;;;5031608;28;20032;-66
2021/04/27 14:57:46;;;;;;;10.13;3.72;;;;;;;;;;5032859;28;20092;-66
2021/04/27 15:00:13;;;;;;;7.28;3.17;;;;;;;;;;5030669;28;20043;-65
2021/04/27 15:02:40;;;;;;;4.60;2.70;;;;;;;;;;5030340;28;20156;-65
2021/04/27 15:05:07;;;;;;;8.93;3.35;;;;;;;;;;5032660;28;20036;-65
2021/04/27 15:07:34;;;;;;;6.28;2.90;;;;;;;;;;5031393;28;20144;-66
2021/04/27 15:10:00;;;;;;;6.72;2.75;;;;;;;;;;5033018;28;20029;-65
2021/04/27 15:12:26;;;;;;;9.10;3.30;;;;;;;;;;5032782;28;20034;-66
2021/04/27 15:14:53;;;;;;;6.03;2.80;;;;;;;;;;5032257;28;20138;-65
2021/04/27 15:17:19;;;;;;;8.98;2.70;;;;;;;;;;5032304;28;20056;-66
2021/04/27 15:19:46;;;;;;;4.55;2.33;;;;;;;;;;5031919;28;20390;-66
2021/04/27 15:22:13;;;;;;;6.05;2.17;;;;;;;;;;5032205;28;20033;-66
2021/04/27 15:24:40;;;;;;;5.10;2.67;;;;;;;;;;5031283;28;20305;-66
2021/04/27 15:27:06;;;;;;;6.05;3.08;;;;;;;;;;5032235;28;20433;-66
2021/04/27 15:29:34;;;;;;;9.77;2.97;;;;;;;;;;5032726;28;20087;-66
2021/04/27 15:32:01;;;;;;;6.40;2.35;;;;;;;;;;5032579;28;20362;-66
2021/04/27 15:34:27;;;;;;;5.38;2.83;;;;;;;;;;5032172;28;20053;-66
2021/04/27 15:36:54;;;;;;;6.95;2.53;;;;;;;;;;5032441;28;20021;-66
2021/04/27 15:39:20;;;;;;;3.20;1.88;;;;;;;;;;5032405;28;20026;-65
2021/04/27 15:41:47;;;;;;;5.03;2.90;;;;;;;;;;5030708;28;20044;-66
2021/04/27 15:44:13;;;;;;;6.28;2.83;;;;;;;;;;5030965;28;20045;-66
2021/04/27 15:46:41;;;;;;;8.10;3.10;;;;;;;;;;5032582;28;20101;-66
2021/04/27 15:49:08;;;;;;;7.90;2.58;;;;;;;;;;5031997;28;20498;-65
2021/04/27 15:51:34;;;;;;;6.60;2.60;;;;;;;;;;5032245;28;20128;-66
2021/04/27 15:54:01;;;;;;;6.57;2.67;;;;;;;;;;5032147;28;20031;-66
2021/04/27 15:56:27;;;;;;;5.93;3.08;;;;;;;;;;5030451;28;20075;-66
2021/04/27 15:58:54;;;;;;;4.07;2.28;;;;;;;;;;5032108;28;20017;-66
2021/04/27 16:01:20;;;;;;;5.63;3.05;;;;;;;;;;5032056;28;20018;-66
2021/04/27 16:03:47;;;;;;;5.53;2.47;;;;;;;;;;5031555;28;20029;-66
2021/04/27 16:06:13;;;;;;;7.82;2.60;;;;;;;;;;5032099;28;20374;-66
2021/04/27 16:08:39;;;;;;;6.43;2.85;;;;;;;;;;5030966;28;20241;-66
2021/04/27 16:11:10;;;;;;;7.65;3.60;;;;;;;;;;5031723;28;20545;-66
2021/04/27 16:13:36;;;;;;;5.22;2.85;;;;;;;;;;5032049;28;20021;-67
2021/04/27 16:16:03;;;;;;;7.63;3.20;;;;;;;;;;5031966;28;20130;-66
2021/04/27 16:18:29;;;;;;;6.63;3.50;;;;;;;;;;5031513;28;20096;-66
2021/04/27 16:20:56;;;;;;;6.72;3.13;;;;;;;;;;5030594;28;20079;-67
2021/04/27 16:23:22;;;;;;;7.75;3.35;;;;;;;;;;5031331;28;20037;-67
2021/04/27 16:25:48;;;;;;;6.90;3.17;;;;;;;;;;5032133;28;20079;-66
2021/04/27 16:28:14;;;;;;;8.32;3.35;;;;;;;;;;5032203;28;20094;-66
2021/04/27 16:30:42;;;;;;;5.15;3.08;;;;;;;;;;5034708;28;20044;-66
2021/04/27 16:33:09;;;;;;;7.18;3.65;;;;;;;;;;5035171;28;20017;-66
2021/04/27 16:35:36;;;;;;;7.28;3.42;;;;;;;;;;5035459;28;20092;-66
2021/04/27 16:38:02;;;;;;;8.23;3.00;;;;;;;;;;5033907;28;20381;-66